createdAt,value
2019-03-10T00:01:27.210Z,1.70
2019-03-10T00:03:54.969Z,1.40
2019-03-10T00:06:22.735Z,1.63
2019-03-10T00:08:50.605Z,1.30
2019-03-10T00:11:18.355Z,1.50
2019-03-10T00:13:45.995Z,1.20
2019-03-10T00:16:13.784Z,1.37
2019-03-10T00:18:41.565Z,1.47
2019-03-10T00:21:09.323Z,1.83
2019-03-10T00:23:37.017Z,1.77
2019-03-10T00:26:05.291Z,1.95
2019-03-10T00:28:33.037Z,1.60
2019-03-10T00:31:00.908Z,1.83
2019-03-10T00:33:28.780Z,1.80
2019-03-10T00:35:56.523Z,1.70
2019-03-10T00:38:24.312Z,1.50
2019-03-10T00:40:56.185Z,1.60
2019-03-10T00:43:43.385Z,1.07
2019-03-10T00:46:24.835Z,1.23
2019-03-10T00:48:56.856Z,1.40
2019-03-10T00:51:41.256Z,1.47
2019-03-10T00:54:09.172Z,1.30
2019-03-10T00:56:37.038Z,1.23
2019-03-10T00:59:04.804Z,1.10
2019-03-10T01:01:32.551Z,1.20
2019-03-10T01:04:00.346Z,1.43
2019-03-10T01:06:27.987Z,1.20
2019-03-10T01:08:55.647Z,1.10
2019-03-10T01:11:23.423Z,1.20
2019-03-10T01:13:51.301Z,1.40
2019-03-10T01:16:19.021Z,1.40
2019-03-10T01:18:47.555Z,1.23
2019-03-10T01:21:16.033Z,1.43
2019-03-10T01:23:43.789Z,1.00
2019-03-10T01:26:11.667Z,1.00
2019-03-10T01:28:39.536Z,1.30
2019-03-10T01:31:27.160Z,1.37
2019-03-10T01:34:05.096Z,1.60
2019-03-10T01:36:32.316Z,1.20
2019-03-10T01:39:00.085Z,1.30
2019-03-10T01:41:27.862Z,1.37
2019-03-10T01:43:55.619Z,1.30
2019-03-10T01:46:23.383Z,1.20
2019-03-10T01:48:51.162Z,1.40
2019-03-10T01:51:18.813Z,1.60
2019-03-10T01:53:46.435Z,1.67
2019-03-10T01:56:14.446Z,1.30
2019-03-10T01:58:42.218Z,1.23
2019-03-10T02:01:09.933Z,1.27
2019-03-10T02:03:37.745Z,1.50
2019-03-10T02:06:05.446Z,1.60
2019-03-10T02:08:33.159Z,1.53
2019-03-10T02:11:01.047Z,1.40
2019-03-10T02:13:28.706Z,1.53
2019-03-10T02:15:56.364Z,1.40
2019-03-10T02:18:24.237Z,1.87
2019-03-10T02:20:52.111Z,1.50
2019-03-10T02:23:19.772Z,1.30
2019-03-10T02:25:47.550Z,1.43
2019-03-10T02:28:15.283Z,1.93
2019-03-10T02:30:43.068Z,1.30
2019-03-10T02:33:11.132Z,1.30
2019-03-10T02:35:38.926Z,1.43
2019-03-10T02:38:06.673Z,1.20
2019-03-10T02:40:34.540Z,1.20
2019-03-10T02:43:02.252Z,1.37
2019-03-10T02:45:29.968Z,1.77
2019-03-10T02:47:57.845Z,1.00
2019-03-10T02:50:25.521Z,1.37
2019-03-10T02:52:53.261Z,1.23
2019-03-10T02:55:21.144Z,1.13
2019-03-10T02:57:49.207Z,1.17
2019-03-10T03:00:17.135Z,1.13
2019-03-10T03:02:45.154Z,0.93
2019-03-10T03:05:12.899Z,2.00
2019-03-10T03:07:40.687Z,2.63
2019-03-10T03:10:12.361Z,1.30
2019-03-10T03:12:40.111Z,1.57
2019-03-10T03:15:08.792Z,1.70
2019-03-10T03:17:36.556Z,1.10
2019-03-10T03:20:06.987Z,1.45
2019-03-10T03:22:34.749Z,1.80
2019-03-10T03:25:02.534Z,1.23
2019-03-10T03:27:30.290Z,1.90
2019-03-10T03:29:57.949Z,1.53
2019-03-10T03:32:25.705Z,1.40
2019-03-10T03:34:53.488Z,1.53
2019-03-10T03:37:21.339Z,1.90
2019-03-10T03:39:49.038Z,1.77
2019-03-10T03:42:16.782Z,1.20
2019-03-10T03:44:44.546Z,1.57
2019-03-10T03:47:12.301Z,1.80
2019-03-10T03:49:40.082Z,1.60
2019-03-10T03:52:07.840Z,1.70
2019-03-10T03:54:35.502Z,1.80
2019-03-10T03:57:03.380Z,1.40
2019-03-10T03:59:31.131Z,1.73
2019-03-10T04:02:06.490Z,1.37
2019-03-10T04:04:34.247Z,1.30
2019-03-10T04:07:02.016Z,1.30
2019-03-10T04:09:29.792Z,1.50
2019-03-10T04:11:57.666Z,1.70
2019-03-10T04:14:25.342Z,1.67
2019-03-10T04:16:53.265Z,1.10
2019-03-10T04:19:21.045Z,2.00
2019-03-10T04:21:48.762Z,2.03
2019-03-10T04:24:16.462Z,2.40
2019-03-10T04:26:44.241Z,3.50
2019-03-10T04:29:12.029Z,3.10
2019-03-10T04:31:39.795Z,2.40
2019-03-10T04:34:07.423Z,2.30
2019-03-10T04:36:35.196Z,1.80
2019-03-10T04:39:03.072Z,1.60
2019-03-10T04:41:30.836Z,1.40
2019-03-10T04:43:58.613Z,1.10
2019-03-10T04:46:26.583Z,1.00
2019-03-10T04:48:54.346Z,1.57
2019-03-10T04:51:22.108Z,1.23
2019-03-10T04:53:49.873Z,0.90
2019-03-10T04:56:21.836Z,1.53
2019-03-10T04:58:51.241Z,1.83
2019-03-10T05:01:19.400Z,2.80
2019-03-10T05:03:47.286Z,2.53
2019-03-10T05:06:14.935Z,2.13
2019-03-10T05:08:42.624Z,1.70
2019-03-10T05:11:10.390Z,1.60
2019-03-10T05:13:38.023Z,1.60
2019-03-10T05:16:05.799Z,1.40
2019-03-10T05:18:33.578Z,1.90
2019-03-10T05:21:01.332Z,1.80
2019-03-10T05:23:29.836Z,1.60
2019-03-10T05:26:00.143Z,1.53
2019-03-10T05:28:28.834Z,1.20
2019-03-10T05:30:56.500Z,1.50
2019-03-10T05:33:24.371Z,1.57
2019-03-10T05:35:52.048Z,1.23
2019-03-10T05:38:19.796Z,1.60
2019-03-10T05:40:47.665Z,1.13
2019-03-10T05:43:15.534Z,1.07
2019-03-10T05:45:43.310Z,0.97
2019-03-10T05:48:11.047Z,0.80
2019-03-10T05:50:38.683Z,0.93
2019-03-10T05:53:06.602Z,1.13
2019-03-10T05:55:34.463Z,0.97
2019-03-10T05:58:02.117Z,1.00
2019-03-10T06:00:30.002Z,0.97
2019-03-10T06:02:57.736Z,0.93
2019-03-10T06:05:25.529Z,1.20
2019-03-10T06:07:53.249Z,0.97
2019-03-10T06:10:21.066Z,1.30
2019-03-10T06:12:48.843Z,1.10
2019-03-10T06:15:16.489Z,1.00
2019-03-10T06:17:44.256Z,1.00
2019-03-10T06:20:12.020Z,1.60
2019-03-10T06:22:39.670Z,1.33
2019-03-10T06:25:07.680Z,1.40
2019-03-10T06:27:35.420Z,1.40
2019-03-10T06:30:03.501Z,1.50
2019-03-10T06:32:31.371Z,1.57
2019-03-10T06:34:59.111Z,1.50
2019-03-10T06:37:26.793Z,2.40
2019-03-10T06:39:54.573Z,2.17
2019-03-10T06:42:22.425Z,2.30
2019-03-10T06:44:50.196Z,2.67
2019-03-10T06:47:17.852Z,2.70
2019-03-10T06:49:45.532Z,3.00
2019-03-10T06:52:13.389Z,2.70
2019-03-10T06:54:41.150Z,2.67
2019-03-10T06:57:08.920Z,2.40
2019-03-10T06:59:36.790Z,2.90
2019-03-10T07:02:05.472Z,2.75
2019-03-10T07:04:33.230Z,3.43
2019-03-10T07:07:01.112Z,3.13
2019-03-10T07:09:28.874Z,3.67
2019-03-10T07:11:56.540Z,2.40
2019-03-10T07:14:24.300Z,2.70
2019-03-10T07:16:52.045Z,2.57
2019-03-10T07:19:19.740Z,2.70
2019-03-10T07:21:47.384Z,3.13
2019-03-10T07:24:15.253Z,2.90
2019-03-10T07:26:43.032Z,1.90
2019-03-10T07:29:17.971Z,2.90
2019-03-10T07:32:02.611Z,2.40
2019-03-10T07:34:41.043Z,2.73
2019-03-10T07:37:22.537Z,3.20
2019-03-10T07:39:51.828Z,3.20
2019-03-10T07:42:27.226Z,3.03
2019-03-10T07:44:56.479Z,2.53
2019-03-10T07:47:42.576Z,4.23
2019-03-10T07:50:28.511Z,2.80
2019-03-10T07:53:04.219Z,2.63
2019-03-10T07:55:42.641Z,3.23
2019-03-10T07:58:20.754Z,3.73
2019-03-10T08:01:08.459Z,3.03
2019-03-10T08:03:37.884Z,2.50
2019-03-10T08:06:12.912Z,3.63
2019-03-10T08:08:42.205Z,2.50
2019-03-10T08:11:11.632Z,3.03
2019-03-10T08:13:41.036Z,3.40
2019-03-10T08:16:16.477Z,3.57
2019-03-10T08:18:52.332Z,14.37
2019-03-10T08:21:24.400Z,3.60
2019-03-10T08:23:59.445Z,4.40
2019-03-10T08:26:28.837Z,5.50
2019-03-10T08:29:14.637Z,3.70
2019-03-10T08:31:44.140Z,4.27
2019-03-10T08:34:22.458Z,3.00
2019-03-10T08:36:56.559Z,3.83
2019-03-10T08:39:28.833Z,3.93
2019-03-10T08:42:04.263Z,3.63
2019-03-10T08:44:33.534Z,4.40
2019-03-10T08:47:02.885Z,4.03
2019-03-10T08:49:50.324Z,3.97
2019-03-10T08:52:22.384Z,4.37
2019-03-10T08:54:51.611Z,4.50
2019-03-10T08:57:26.967Z,4.40
2019-03-10T09:00:12.507Z,4.87
2019-03-10T09:02:41.813Z,4.93
2019-03-10T09:05:16.536Z,4.83
2019-03-10T09:07:55.224Z,4.80
2019-03-10T09:10:24.663Z,5.37
2019-03-10T09:13:06.269Z,4.67
2019-03-10T09:15:38.013Z,4.40
2019-03-10T09:18:19.916Z,4.63
2019-03-10T09:21:07.631Z,4.87
2019-03-10T09:23:53.843Z,4.00
2019-03-10T09:26:23.261Z,5.30
2019-03-10T09:28:52.555Z,5.90
2019-03-10T09:31:21.853Z,4.53
2019-03-10T09:33:57.188Z,4.80
2019-03-10T09:36:41.964Z,4.63
2019-03-10T09:39:11.781Z,5.27
2019-03-10T09:41:46.824Z,5.47
2019-03-10T09:44:32.526Z,5.80
2019-03-10T09:47:04.972Z,5.97
2019-03-10T09:49:40.111Z,5.40
2019-03-10T09:52:09.520Z,5.10
2019-03-10T09:54:44.780Z,6.20
2019-03-10T09:57:16.924Z,5.57
2019-03-10T10:00:04.352Z,5.83
2019-03-10T10:02:33.867Z,5.50
2019-03-10T10:05:03.270Z,6.00
2019-03-10T10:07:48.946Z,5.33
2019-03-10T10:10:21.239Z,5.20
2019-03-10T10:12:50.523Z,5.67
2019-03-10T10:15:32.223Z,5.40
2019-03-10T10:18:10.940Z,5.47
2019-03-10T10:20:58.271Z,5.30
2019-03-10T10:23:36.888Z,5.20
2019-03-10T10:26:07.113Z,4.95
2019-03-10T10:28:54.627Z,2.93
2019-03-10T10:31:40.308Z,4.43
2019-03-10T10:34:26.421Z,2.20
2019-03-10T10:37:01.871Z,4.40
2019-03-10T10:39:33.942Z,4.60
2019-03-10T10:42:06.001Z,3.70
2019-03-10T10:44:44.637Z,3.97
2019-03-10T10:47:14.138Z,4.57
2019-03-10T10:49:46.407Z,3.97
2019-03-10T10:52:32.384Z,4.13
2019-03-10T10:55:07.624Z,4.33
2019-03-10T10:57:46.169Z,8.43
2019-03-10T11:00:28.670Z,4.07
2019-03-10T11:03:03.855Z,5.50
2019-03-10T11:05:33.111Z,2.60
2019-03-10T11:08:19.302Z,4.20
2019-03-10T11:10:48.486Z,3.67
2019-03-10T11:13:23.956Z,3.00
2019-03-10T11:16:09.825Z,3.77
2019-03-10T11:18:39.441Z,4.53
2019-03-10T11:21:08.736Z,4.70
2019-03-10T11:23:44.300Z,5.77
2019-03-10T11:26:22.923Z,4.83
2019-03-10T11:29:10.461Z,5.63
2019-03-10T11:31:39.667Z,5.67
2019-03-10T11:34:24.209Z,5.00
2019-03-10T11:37:05.695Z,5.50
2019-03-10T11:39:49.931Z,5.33
2019-03-10T11:42:19.244Z,4.57
2019-03-10T11:45:00.531Z,4.97
2019-03-10T11:47:29.920Z,5.13
2019-03-10T11:50:05.276Z,5.30
2019-03-10T11:52:37.464Z,4.50
2019-03-10T11:55:08.027Z,5.10
2019-03-10T11:57:43.334Z,4.90
2019-03-10T12:00:14.577Z,4.87
2019-03-10T12:02:59.028Z,4.57
2019-03-10T12:05:33.741Z,4.57
2019-03-10T12:08:11.880Z,4.97
2019-03-10T12:10:39.635Z,4.60
2019-03-10T12:13:07.506Z,4.73
2019-03-10T12:15:35.375Z,4.70
2019-03-10T12:18:03.120Z,4.20
2019-03-10T12:20:30.918Z,4.57
2019-03-10T12:22:58.547Z,4.43
2019-03-10T12:25:26.341Z,4.93
2019-03-10T12:27:54.096Z,4.67
2019-03-10T12:30:21.779Z,3.73
2019-03-10T12:32:49.627Z,4.37
2019-03-10T12:35:17.256Z,4.83
2019-03-10T12:37:44.952Z,4.83
2019-03-10T12:40:13.437Z,4.47
2019-03-10T12:42:41.200Z,5.70
2019-03-10T12:45:09.635Z,7.73
2019-03-10T12:47:37.554Z,18.77
2019-03-10T12:50:06.978Z,63.83
2019-03-10T12:52:34.832Z,110.07
2019-03-10T12:55:02.589Z,96.63
2019-03-10T12:57:30.300Z,95.00
2019-03-10T12:59:58.230Z,19.83
2019-03-10T13:02:26.015Z,228.83
2019-03-10T13:04:53.862Z,143.33
2019-03-10T13:07:21.630Z,57.80
2019-03-10T13:09:49.397Z,213.30
2019-03-10T13:12:17.143Z,72.57
2019-03-10T13:14:44.925Z,35.33
2019-03-10T13:17:12.711Z,9.83
2019-03-10T13:19:40.702Z,17.60
2019-03-10T13:22:08.533Z,16.93
2019-03-10T13:24:36.377Z,8.90
2019-03-10T13:27:04.007Z,5.60
2019-03-10T13:29:31.686Z,41.47
2019-03-10T13:31:59.420Z,27.67
2019-03-10T13:34:27.153Z,20.23
2019-03-10T13:36:54.937Z,9.03
2019-03-10T13:39:22.694Z,15.87
2019-03-10T13:41:50.477Z,39.07
2019-03-10T13:44:18.303Z,6.40
2019-03-10T13:46:46.101Z,5.30
2019-03-10T13:49:13.859Z,7.90
2019-03-10T13:51:41.633Z,9.20
2019-03-10T13:54:09.492Z,5.97
2019-03-10T13:56:37.258Z,3.80
2019-03-10T13:59:05.003Z,4.73
2019-03-10T14:01:32.783Z,5.57
2019-03-10T14:04:00.657Z,4.67
2019-03-10T14:06:28.375Z,3.90
2019-03-10T14:08:56.083Z,7.07
2019-03-10T14:11:23.954Z,4.67
2019-03-10T14:13:51.733Z,4.53
2019-03-10T14:16:20.619Z,4.53
2019-03-10T14:18:48.371Z,4.80
2019-03-10T14:21:16.067Z,4.77
2019-03-10T14:23:43.773Z,5.07
2019-03-10T14:26:11.567Z,5.53
2019-03-10T14:28:39.298Z,6.83
2019-03-10T14:31:07.213Z,5.77
2019-03-10T14:33:34.969Z,6.17
2019-03-10T14:36:02.745Z,7.93
2019-03-10T14:38:30.375Z,6.77
2019-03-10T14:40:58.174Z,6.47
2019-03-10T14:43:26.038Z,6.47
2019-03-10T14:45:53.684Z,6.50
2019-03-10T14:48:21.456Z,6.10
2019-03-10T14:50:49.227Z,6.50
2019-03-10T14:53:17.101Z,6.53
2019-03-10T14:55:44.751Z,7.10
2019-03-10T14:58:12.476Z,6.87
2019-03-10T15:00:40.186Z,6.00
2019-03-10T15:03:07.836Z,6.20
2019-03-10T15:05:35.632Z,6.43
2019-03-10T15:08:03.385Z,6.17
2019-03-10T15:10:31.165Z,6.37
2019-03-10T15:12:58.843Z,6.90
2019-03-10T15:15:26.587Z,6.53
2019-03-10T15:17:54.327Z,7.87
2019-03-10T15:20:22.125Z,6.27
2019-03-10T15:22:49.890Z,29.53
2019-03-10T15:25:21.328Z,6.43
2019-03-10T15:27:49.209Z,7.17
2019-03-10T15:30:17.663Z,7.43
2019-03-10T15:32:45.862Z,6.83
2019-03-10T15:35:13.945Z,7.77
2019-03-10T15:37:41.689Z,7.23
2019-03-10T15:40:13.477Z,7.60
2019-03-10T15:42:41.226Z,7.93
2019-03-10T15:45:15.336Z,7.33
2019-03-10T15:47:43.086Z,7.93
2019-03-10T15:50:12.305Z,8.53
2019-03-10T15:52:40.174Z,9.17
2019-03-10T15:55:07.919Z,10.23
2019-03-10T15:57:35.700Z,10.10
2019-03-10T16:00:04.796Z,9.90
2019-03-10T16:02:32.548Z,10.37
2019-03-10T16:05:00.438Z,9.67
2019-03-10T16:07:28.306Z,10.43
2019-03-10T16:09:56.174Z,10.77
2019-03-10T16:12:23.815Z,9.63
2019-03-10T16:14:51.601Z,9.67
2019-03-10T16:17:19.472Z,8.97
2019-03-10T16:19:47.115Z,8.23
2019-03-10T16:22:14.902Z,8.27
2019-03-10T16:24:43.055Z,7.63
2019-03-10T16:27:10.836Z,7.60
2019-03-10T16:29:38.483Z,7.07
2019-03-10T16:32:07.189Z,9.20
2019-03-10T16:34:34.883Z,12.70
2019-03-10T16:37:02.589Z,6.97
2019-03-10T16:39:30.502Z,136.53
2019-03-10T16:41:58.365Z,28.70
2019-03-10T16:44:26.121Z,17.40
2019-03-10T16:46:53.790Z,11.97
2019-03-10T16:49:21.468Z,13.03
2019-03-10T16:51:49.206Z,7.53
2019-03-10T16:54:16.973Z,27.20
2019-03-10T16:56:44.761Z,5.23
2019-03-10T16:59:12.495Z,7.37
2019-03-10T17:01:40.268Z,9.93
2019-03-10T17:04:08.156Z,4.53
2019-03-10T17:06:35.926Z,5.57
2019-03-10T17:09:05.098Z,5.67
2019-03-10T17:14:22.777Z,4.80
2019-03-10T17:16:50.411Z,4.90
2019-03-10T17:19:18.205Z,4.23
2019-03-10T17:21:45.958Z,4.23
2019-03-10T17:24:13.732Z,7.13
2019-03-10T17:26:41.490Z,7.60
2019-03-10T17:29:09.356Z,22.03
2019-03-10T17:31:37.041Z,5.40
2019-03-10T17:34:05.330Z,4.17
2019-03-10T17:36:33.172Z,3.93
2019-03-10T17:39:01.039Z,4.07
2019-03-10T17:41:28.809Z,4.10
2019-03-10T17:43:56.580Z,3.50
2019-03-10T17:46:24.436Z,4.00
2019-03-10T17:48:52.205Z,3.70
2019-03-10T17:51:19.850Z,3.00
2019-03-10T17:53:47.638Z,3.13
2019-03-10T17:56:15.508Z,3.27
2019-03-10T17:58:43.268Z,3.30
2019-03-10T18:01:10.912Z,3.07
2019-03-10T18:03:38.795Z,69.57
2019-03-10T18:06:06.669Z,4.70
2019-03-10T18:08:34.536Z,14.83
2019-03-10T18:11:02.334Z,41.47
2019-03-10T18:13:30.189Z,44.07
2019-03-10T18:15:58.039Z,55.57
2019-03-10T18:18:25.922Z,170.63
2019-03-10T18:20:53.552Z,46.73
2019-03-10T18:23:21.333Z,56.77
2019-03-10T18:25:49.110Z,108.77
2019-03-10T18:28:17.087Z,149.63
2019-03-10T18:30:44.942Z,108.83
2019-03-10T18:33:12.810Z,71.00
2019-03-10T18:35:40.578Z,30.57
2019-03-10T18:38:08.340Z,64.10
2019-03-10T18:40:36.103Z,58.17
2019-03-10T18:43:04.076Z,47.03
2019-03-10T18:45:31.857Z,66.17
2019-03-10T18:47:59.604Z,81.77
2019-03-10T18:50:27.913Z,63.83
2019-03-10T18:52:55.757Z,37.03
2019-03-10T18:55:23.834Z,36.33
2019-03-10T18:57:51.697Z,25.43
2019-03-10T19:00:26.317Z,60.20
2019-03-10T19:03:04.845Z,80.47
2019-03-10T19:05:32.607Z,46.13
2019-03-10T19:08:00.481Z,50.27
2019-03-10T19:10:28.245Z,54.30
2019-03-10T19:12:56.208Z,38.83
2019-03-10T19:15:24.575Z,22.07
2019-03-10T19:17:52.466Z,39.00
2019-03-10T19:20:20.225Z,29.63
2019-03-10T19:22:47.991Z,21.00
2019-03-10T19:25:16.075Z,25.37
2019-03-10T19:27:43.811Z,21.27
2019-03-10T19:30:12.731Z,10.83
2019-03-10T19:32:40.491Z,6.53
2019-03-10T19:35:09.069Z,4.37
2019-03-10T19:37:36.956Z,4.80
2019-03-10T19:40:08.387Z,4.58
2019-03-10T19:42:36.366Z,3.20
2019-03-10T19:45:05.366Z,4.10
2019-03-10T19:47:33.232Z,2.90
2019-03-10T19:50:00.859Z,3.77
2019-03-10T19:52:28.671Z,9.50
2019-03-10T19:54:56.527Z,4.97
2019-03-10T19:57:24.287Z,4.63
2019-03-10T19:59:52.058Z,4.40
2019-03-10T20:02:19.821Z,3.83
2019-03-10T20:04:47.580Z,4.93
2019-03-10T20:07:15.352Z,6.27
2019-03-10T20:09:43.117Z,5.70
2019-03-10T20:12:11.092Z,5.53
2019-03-10T20:14:38.962Z,6.40
2019-03-10T20:17:06.840Z,5.10
2019-03-10T20:19:34.701Z,14.53
2019-03-10T20:22:02.461Z,3.00
2019-03-10T20:24:30.229Z,3.40
2019-03-10T20:26:58.188Z,3.13
2019-03-10T20:29:25.970Z,3.37
2019-03-10T20:31:53.617Z,5.27
2019-03-10T20:34:21.389Z,4.93
2019-03-10T20:36:49.267Z,4.60
2019-03-10T20:39:17.127Z,3.70
2019-03-10T20:41:45.103Z,4.40
2019-03-10T20:44:12.854Z,4.33
2019-03-10T20:46:40.845Z,2.20
2019-03-10T20:49:08.488Z,2.37
2019-03-10T20:51:36.156Z,2.13
2019-03-10T20:54:03.831Z,10.53
2019-03-10T20:56:31.507Z,3.10
2019-03-10T20:58:59.465Z,2.27
2019-03-10T21:01:27.225Z,1.90
2019-03-10T21:03:54.988Z,2.00
2019-03-10T21:06:22.965Z,2.77
2019-03-10T21:08:50.721Z,2.60
2019-03-10T21:11:18.376Z,2.27
2019-03-10T21:13:46.075Z,2.23
2019-03-10T21:16:13.819Z,2.00
2019-03-10T21:18:41.585Z,1.80
2019-03-10T21:21:09.454Z,2.40
2019-03-10T21:23:37.116Z,2.50
2019-03-10T21:26:05.401Z,2.55
2019-03-10T21:28:33.247Z,2.10
2019-03-10T21:31:00.887Z,2.00
2019-03-10T21:33:28.547Z,2.50
2019-03-10T21:35:56.464Z,2.13
2019-03-10T21:38:24.251Z,2.30
2019-03-10T21:40:52.012Z,2.63
2019-03-10T21:43:19.774Z,2.73
2019-03-10T21:45:47.834Z,2.80
2019-03-10T21:48:15.696Z,2.23
2019-03-10T21:50:43.565Z,2.90
2019-03-10T21:53:11.434Z,2.60
2019-03-10T21:55:39.121Z,3.53
2019-03-10T21:58:06.844Z,2.90
2019-03-10T22:00:34.488Z,3.37
2019-03-10T22:03:02.275Z,2.97
2019-03-10T22:05:30.046Z,3.20
2019-03-10T22:07:57.817Z,2.60
2019-03-10T22:10:27.990Z,3.10
2019-03-10T22:12:55.168Z,3.60
2019-03-10T22:15:22.876Z,3.37
2019-03-10T22:17:50.555Z,2.40
2019-03-10T22:20:18.709Z,2.90
2019-03-10T22:22:49.213Z,3.03
2019-03-10T22:25:15.756Z,3.43
2019-03-10T22:27:45.554Z,2.67
2019-03-10T22:30:14.887Z,2.60
2019-03-10T22:32:42.861Z,2.13
2019-03-10T22:35:10.507Z,2.33
2019-03-10T22:37:38.294Z,1.90
2019-03-10T22:40:07.897Z,1.63
2019-03-10T22:42:35.527Z,1.87
2019-03-10T22:45:03.329Z,1.33
2019-03-10T22:47:31.097Z,1.93
2019-03-10T22:49:58.861Z,2.20
2019-03-10T22:52:26.644Z,2.90
2019-03-10T22:54:54.505Z,2.97
2019-03-10T22:57:22.344Z,2.27
2019-03-10T22:59:51.148Z,2.40
2019-03-10T23:02:19.022Z,2.50
2019-03-10T23:04:46.769Z,2.47
2019-03-10T23:07:14.553Z,1.70
2019-03-10T23:09:42.343Z,1.30
2019-03-10T23:12:10.108Z,1.80
2019-03-10T23:14:37.858Z,2.00
2019-03-10T23:17:05.720Z,2.30
2019-03-10T23:19:33.360Z,2.20
2019-03-10T23:22:01.140Z,1.60
2019-03-10T23:24:29.004Z,1.47
2019-03-10T23:26:56.792Z,1.00
2019-03-10T23:29:24.543Z,2.00
2019-03-10T23:31:52.308Z,1.30
2019-03-10T23:34:20.178Z,1.40
2019-03-10T23:36:48.050Z,1.63
2019-03-10T23:39:15.821Z,1.30
2019-03-10T23:41:43.685Z,1.07
2019-03-10T23:44:11.454Z,1.40
2019-03-10T23:46:39.312Z,1.10
2019-03-10T23:49:07.087Z,1.47
2019-03-10T23:51:34.727Z,1.17
2019-03-10T23:54:02.509Z,1.30
2019-03-10T23:56:30.271Z,1.10
2019-03-10T23:58:58.040Z,1.30
